Time;durP1;ratioP1;P1;durP2;ratioP2;P2;SDS_P1;SDS_P2;PMS_P1;PMS_P2;Temp;Humidity;BMP_temperature;BMP_pressure;BME280_temperature;BME280_humidity;BME280_pressure;Samples;Min_cycle;Max_cycle;Signal;HPM_P1;HPM_P2
2023/12/23 00:02:13;;;;;;;2.70;0.60;;;5.00;99.90;;;;;;5105158;28;20248;-78
2023/12/23 00:04:40;;;;;;;1.50;0.90;;;4.70;1.00;;;;;;5106589;28;20248;-83
2023/12/23 00:07:07;;;;;;;6.73;1.10;;;4.50;1.00;;;;;;5106516;28;20357;-82
2023/12/23 00:09:34;;;;;;;5.20;1.63;;;4.60;99.90;;;;;;5107537;28;20243;-81
2023/12/23 00:12:01;;;;;;;3.37;0.83;;;4.50;1.00;;;;;;5108005;28;20221;-81
2023/12/23 00:14:29;;;;;;;4.20;0.97;;;4.50;1.00;;;;;;5108271;28;20224;-81
2023/12/23 00:16:56;;;;;;;4.77;0.90;;;4.60;1.00;;;;;;5107600;28;20270;-81
2023/12/23 00:19:23;;;;;;;4.20;0.73;;;4.60;1.00;;;;;;5105176;28;20627;-81
2023/12/23 00:21:50;;;;;;;7.87;1.30;;;4.70;1.00;;;;;;5085700;28;20708;-81
2023/12/23 00:24:17;;;;;;;9.90;1.20;;;4.70;36.80;;;;;;5071482;28;20262;-81
2023/12/23 00:26:44;;;;;;;4.67;1.37;;;4.70;95.70;;;;;;5081806;28;20271;-80
2023/12/23 00:29:10;;;;;;;4.63;0.70;;;4.60;1.00;;;;;;5085433;28;20198;-81
2023/12/23 00:31:39;;;;;;;7.23;0.93;;;4.50;1.00;;;;;;5084115;28;20591;-82
2023/12/23 00:34:06;;;;;;;5.00;0.90;;;4.50;1.00;;;;;;5085063;28;20241;-81
2023/12/23 00:36:32;;;;;;;4.80;0.93;;;4.40;1.00;;;;;;5078773;28;20262;-83
2023/12/23 00:38:59;;;;;;;7.57;1.10;;;4.40;1.00;;;;;;5064273;28;20237;-81
2023/12/23 00:41:26;;;;;;;5.07;1.03;;;4.40;1.00;;;;;;5065436;28;20250;-80
2023/12/23 00:43:53;;;;;;;13.10;1.63;;;4.30;1.00;;;;;;5064851;28;20207;-83
2023/12/23 00:46:20;;;;;;;5.27;1.17;;;4.20;99.90;;;;;;5063319;28;20837;-81
2023/12/23 00:48:48;;;;;;;3.77;0.63;;;4.30;1.00;;;;;;5062688;28;20293;-81
2023/12/23 00:51:15;;;;;;;4.13;0.87;;;4.30;99.90;;;;;;5062875;28;20318;-81
2023/12/23 00:53:42;;;;;;;5.00;0.77;;;4.30;43.40;;;;;;5074576;28;20225;-80
2023/12/23 00:56:08;;;;;;;6.43;1.10;;;4.20;1.00;;;;;;5066317;28;20320;-80
2023/12/23 00:58:36;;;;;;;7.63;1.30;;;4.20;1.00;;;;;;5072559;28;20285;-82
2023/12/23 01:01:03;;;;;;;3.80;0.90;;;4.30;1.00;;;;;;5083921;28;20261;-82
2023/12/23 01:03:30;;;;;;;5.00;0.70;;;4.10;1.00;;;;;;5095631;28;20672;-80
2023/12/23 01:05:58;;;;;;;4.00;0.90;;;4.10;1.00;;;;;;5105015;28;20247;-82
2023/12/23 01:08:25;;;;;;;9.37;0.93;;;4.10;99.90;;;;;;5103926;28;20732;-81
2023/12/23 01:10:52;;;;;;;4.00;1.10;;;4.00;1.00;;;;;;5103192;28;20225;-81
2023/12/23 01:13:19;;;;;;;4.87;0.83;;;3.90;99.90;;;;;;5104701;28;20216;-81
2023/12/23 01:15:46;;;;;;;3.90;1.00;;;3.90;1.00;;;;;;5103674;28;20205;-81
2023/12/23 01:18:13;;;;;;;4.50;0.93;;;3.80;99.90;;;;;;5104118;28;20206;-82
2023/12/23 01:20:42;;;;;;;3.53;1.00;;;3.80;1.00;;;;;;5101569;28;20213;-81
2023/12/23 01:23:10;;;;;;;5.57;1.13;;;3.80;1.00;;;;;;5102459;28;20206;-81
2023/12/23 01:25:37;;;;;;;7.87;1.17;;;3.80;99.90;;;;;;5100962;28;20574;-82
2023/12/23 01:28:05;;;;;;;7.87;1.10;;;3.80;56.00;;;;;;5100491;28;20659;-81
2023/12/23 01:30:32;;;;;;;6.13;1.03;;;3.80;1.00;;;;;;5100067;28;20198;-80
2023/12/23 01:32:59;;;;;;;6.00;1.57;;;3.80;1.00;;;;;;5100572;28;20243;-81
2023/12/23 01:35:26;;;;;;;8.37;1.50;;;3.90;99.90;;;;;;5100728;28;20198;-82
2023/12/23 01:37:53;;;;;;;5.60;0.87;;;4.30;99.90;;;;;;5101288;28;20293;-82
2023/12/23 01:40:22;;;;;;;7.87;1.10;;;4.00;99.90;;;;;;5101768;28;20225;-82
2023/12/23 01:42:49;;;;;;;3.17;1.30;;;3.90;99.90;;;;;;5102025;28;20230;-81
2023/12/23 01:45:16;;;;;;;6.37;1.67;;;4.00;99.90;;;;;;5100739;28;20193;-82
2023/12/23 01:47:47;;;;;;;5.17;1.43;;;4.00;99.90;;;;;;5101484;28;20231;-81
2023/12/23 01:50:15;;;;;;;8.67;1.40;;;4.00;1.00;;;;;;5101939;28;20240;-81
2023/12/23 01:52:42;;;;;;;11.17;1.60;;;4.10;1.00;;;;;;5102112;28;20572;-80
2023/12/23 01:55:09;;;;;;;7.07;1.17;;;4.20;1.00;;;;;;5100440;28;20630;-80
2023/12/23 01:57:38;;;;;;;6.87;1.13;;;4.20;1.00;;;;;;5102154;28;20292;-82
2023/12/23 02:00:07;;;;;;;6.20;1.17;;;4.30;1.00;;;;;;5103721;28;20478;-82
2023/12/23 02:02:38;;;;;;;6.00;1.27;;;4.30;1.00;;;;;;5103848;28;20308;-81
2023/12/23 02:05:06;;;;;;;9.63;2.13;;;4.40;1.00;;;;;;5103087;28;20292;-82
2023/12/23 02:07:33;;;;;;;8.73;1.83;;;4.40;1.00;;;;;;5103375;28;20202;-82
2023/12/23 02:10:00;;;;;;;9.80;1.50;;;4.90;99.90;;;;;;5098248;28;20210;-81
2023/12/23 02:12:37;;;;;;;12.40;1.63;;;4.60;99.90;;;;;;5082028;28;20447;-81
2023/12/23 02:15:10;;;;;;;5.87;1.00;;;4.50;99.90;;;;;;5082863;28;20221;-81
2023/12/23 02:17:39;;;;;;;9.27;1.60;;;4.50;99.90;;;;;;5082039;28;20250;-79
2023/12/23 02:20:07;;;;;;;9.33;1.73;;;4.50;99.90;;;;;;5082095;28;20281;-80
2023/12/23 02:22:35;;;;;;;10.50;2.33;;;4.60;99.90;;;;;;5082345;28;20222;-82
2023/12/23 02:25:02;;;;;;;9.90;1.47;;;4.60;99.90;;;;;;5082528;28;20194;-81
2023/12/23 02:27:33;;;;;;;14.73;1.90;;;4.70;1.00;;;;;;5080001;28;20206;-82
2023/12/23 02:30:01;;;;;;;7.23;1.60;;;4.80;1.00;;;;;;5079591;28;20194;-82
2023/12/23 02:32:29;;;;;;;11.30;1.40;;;4.70;1.00;;;;;;5082492;28;20226;-84
2023/12/23 02:34:56;;;;;;;4.37;1.10;;;4.70;1.00;;;;;;5081740;28;20206;-80
2023/12/23 02:37:23;;;;;;;15.67;1.60;;;4.80;1.00;;;;;;5082346;28;20240;-81
2023/12/23 02:39:51;;;;;;;11.83;1.67;;;4.80;1.00;;;;;;5081542;28;20256;-82
2023/12/23 02:42:18;;;;;;;5.17;1.13;;;4.80;1.00;;;;;;5079594;28;20257;-82
2023/12/23 02:44:45;;;;;;;8.63;1.50;;;4.80;5.00;;;;;;5078616;28;20235;-81
2023/12/23 02:47:12;;;;;;;11.63;1.83;;;4.90;1.00;;;;;;5080695;28;20252;-82
2023/12/23 02:49:39;;;;;;;12.37;1.73;;;4.90;88.70;;;;;;5082273;28;20339;-79
2023/12/23 02:52:06;;;;;;;4.40;1.27;;;4.90;99.90;;;;;;5082152;28;20309;-80
2023/12/23 02:54:33;;;;;;;5.03;1.33;;;4.80;99.90;;;;;;5081830;28;20202;-81
2023/12/23 02:57:01;;;;;;;9.87;1.80;;;4.80;99.90;;;;;;5081915;28;20194;-82
2023/12/23 02:59:28;;;;;;;11.33;1.60;;;4.90;99.90;;;;;;5081609;28;20226;-82
2023/12/23 03:01:55;;;;;;;8.10;1.23;;;5.00;99.90;;;;;;5081689;28;20230;-82
2023/12/23 03:04:22;;;;;;;7.20;1.40;;;4.90;99.90;;;;;;5081176;28;20720;-80
2023/12/23 03:06:49;;;;;;;9.27;1.93;;;5.00;22.80;;;;;;5080213;28;20210;-82
2023/12/23 03:09:15;;;;;;;8.97;1.83;;;5.10;1.00;;;;;;5079886;28;20309;-80
2023/12/23 03:11:43;;;;;;;6.57;2.17;;;5.10;1.00;;;;;;5081854;28;20222;-82
2023/12/23 03:14:11;;;;;;;10.50;1.40;;;5.10;1.00;;;;;;5081877;28;20218;-80
2023/12/23 03:16:38;;;;;;;7.70;1.53;;;5.10;1.00;;;;;;5081422;28;20202;-82
2023/12/23 03:19:05;;;;;;;11.37;1.20;;;5.10;1.00;;;;;;5085400;28;20255;-82
2023/12/23 03:21:32;;;;;;;10.03;1.40;;;5.40;1.00;;;;;;5085253;28;20230;-80
2023/12/23 03:23:59;;;;;;;4.53;1.10;;;5.20;1.00;;;;;;5086271;28;20210;-82
2023/12/23 03:26:26;;;;;;;4.50;0.83;;;5.30;1.00;;;;;;5078827;28;20672;-84
2023/12/23 03:28:53;;;;;;;9.90;2.70;;;5.30;1.00;;;;;;5081275;28;20222;-82
2023/12/23 03:31:21;;;;;;;7.90;1.33;;;5.20;99.90;;;;;;5085792;28;20218;-82
2023/12/23 03:33:48;;;;;;;8.60;1.47;;;5.10;99.90;;;;;;5085792;28;20297;-82
2023/12/23 03:36:17;;;;;;;7.67;1.40;;;5.10;99.90;;;;;;5085975;28;20245;-81
2023/12/23 03:38:44;;;;;;;11.00;1.57;;;5.10;1.00;;;;;;5084713;28;20206;-82
2023/12/23 03:41:11;;;;;;;9.30;1.43;;;5.20;99.90;;;;;;5084232;28;20295;-81
2023/12/23 03:43:38;;;;;;;6.77;1.30;;;5.10;1.00;;;;;;5084336;28;20213;-83
2023/12/23 03:46:05;;;;;;;6.37;1.23;;;5.10;1.00;;;;;;5075035;28;20875;-82
2023/12/23 03:48:33;;;;;;;7.67;1.40;;;5.20;1.00;;;;;;5063868;28;20210;-79
2023/12/23 03:51:00;;;;;;;7.90;1.60;;;5.20;1.00;;;;;;5070954;28;20282;-82
2023/12/23 03:53:28;;;;;;;8.67;1.70;;;5.10;1.00;;;;;;5083684;28;20210;-81
2023/12/23 03:55:54;;;;;;;9.20;1.93;;;5.10;1.00;;;;;;5084509;28;20202;-82
2023/12/23 03:58:21;;;;;;;6.80;1.53;;;5.10;1.00;;;;;;5084359;28;20202;-80
2023/12/23 04:00:48;;;;;;;9.53;1.27;;;5.10;1.00;;;;;;5085341;28;20261;-81
2023/12/23 04:03:15;;;;;;;9.47;1.53;;;5.10;99.90;;;;;;5084796;28;20317;-82
2023/12/23 04:05:43;;;;;;;12.13;1.40;;;5.10;99.90;;;;;;5083662;28;20208;-80
2023/12/23 04:08:10;;;;;;;6.60;1.33;;;5.10;1.00;;;;;;5084828;28;20229;-82
2023/12/23 04:10:37;;;;;;;10.77;1.80;;;5.20;1.00;;;;;;5084356;28;20199;-82
2023/12/23 04:13:04;;;;;;;10.83;1.90;;;5.20;99.90;;;;;;5085597;28;20209;-80
2023/12/23 04:15:31;;;;;;;12.03;1.50;;;5.30;99.90;;;;;;5084631;28;20290;-82
2023/12/23 04:17:58;;;;;;;8.63;1.73;;;5.20;1.00;;;;;;5084113;28;20209;-80
2023/12/23 04:20:25;;;;;;;8.47;1.30;;;5.20;99.90;;;;;;5085149;28;20220;-81
2023/12/23 04:22:53;;;;;;;7.93;1.40;;;5.20;1.00;;;;;;5083987;28;20234;-81
2023/12/23 04:25:20;;;;;;;5.43;1.07;;;5.10;1.00;;;;;;5085754;28;20206;-82
2023/12/23 04:27:48;;;;;;;7.63;1.50;;;5.00;99.90;;;;;;5085950;28;20238;-82
2023/12/23 04:30:15;;;;;;;5.13;1.40;;;5.00;1.00;;;;;;5086261;28;20198;-79
2023/12/23 04:32:42;;;;;;;6.40;1.60;;;4.90;1.00;;;;;;5085685;28;20233;-81
2023/12/23 04:35:09;;;;;;;7.53;1.57;;;4.90;99.90;;;;;;5086998;28;20225;-82
2023/12/23 04:37:41;;;;;;;6.27;1.10;;;4.80;1.00;;;;;;5086752;28;20252;-81
2023/12/23 04:40:11;;;;;;;4.93;1.23;;;4.80;1.00;;;;;;5086731;28;20259;-82
2023/12/23 04:42:38;;;;;;;6.63;1.33;;;4.80;1.00;;;;;;5084373;28;20282;-82
2023/12/23 04:45:07;;;;;;;5.00;1.57;;;4.80;1.00;;;;;;5085926;28;20256;-81
2023/12/23 04:47:34;;;;;;;7.53;2.20;;;4.70;1.00;;;;;;5086779;28;20205;-81
2023/12/23 04:50:00;;;;;;;5.27;1.00;;;4.70;1.00;;;;;;5085511;28;20276;-82
2023/12/23 04:52:27;;;;;;;4.20;1.10;;;4.70;81.40;;;;;;5082279;28;20230;-81
2023/12/23 04:54:54;;;;;;;9.03;1.67;;;4.80;1.00;;;;;;5083117;28;20248;-81
2023/12/23 04:57:23;;;;;;;10.17;1.60;;;4.80;1.00;;;;;;5085904;28;20214;-82
2023/12/23 04:59:49;;;;;;;6.27;1.47;;;4.90;99.90;;;;;;5085852;28;20660;-82
2023/12/23 05:02:16;;;;;;;5.83;1.30;;;4.70;99.90;;;;;;5085483;28;20232;-81
2023/12/23 05:04:46;;;;;;;5.70;1.10;;;4.70;99.90;;;;;;5086089;28;20616;-82
2023/12/23 05:07:13;;;;;;;5.10;1.10;;;4.70;99.90;;;;;;5085913;28;20205;-80
2023/12/23 05:09:39;;;;;;;5.00;0.80;;;4.70;99.90;;;;;;5085350;28;20207;-81
2023/12/23 05:12:07;;;;;;;5.13;1.23;;;4.70;99.90;;;;;;5084712;28;20230;-80
2023/12/23 05:14:35;;;;;;;7.93;1.20;;;4.80;99.90;;;;;;5086365;28;20236;-81
2023/12/23 05:17:02;;;;;;;6.67;1.17;;;4.80;61.20;;;;;;5085592;28;20645;-80
2023/12/23 05:19:29;;;;;;;7.73;1.50;;;4.80;99.90;;;;;;5085268;28;20241;-81
2023/12/23 05:21:56;;;;;;;4.07;0.93;;;4.80;99.90;;;;;;5084606;28;20233;-82
2023/12/23 05:24:23;;;;;;;7.57;1.67;;;4.90;99.90;;;;;;5085167;28;20285;-81
2023/12/23 05:26:50;;;;;;;5.70;1.07;;;4.90;99.90;;;;;;5083965;28;20241;-81
2023/12/23 05:29:17;;;;;;;3.30;1.00;;;4.90;99.90;;;;;;5084225;28;20210;-80
2023/12/23 05:31:46;;;;;;;7.33;1.17;;;4.90;59.70;;;;;;5084913;28;20222;-81
2023/12/23 05:34:13;;;;;;;5.53;0.83;;;4.90;93.10;;;;;;5085508;28;20230;-81
2023/12/23 05:36:39;;;;;;;6.53;0.93;;;4.90;1.00;;;;;;5083926;28;20252;-81
2023/12/23 05:39:07;;;;;;;7.10;0.80;;;5.00;1.00;;;;;;5081422;28;20202;-81
2023/12/23 05:41:34;;;;;;;7.90;1.13;;;5.00;1.00;;;;;;5080708;28;20229;-81
2023/12/23 05:44:01;;;;;;;4.57;1.30;;;5.00;1.00;;;;;;5081314;28;20238;-82
2023/12/23 05:46:27;;;;;;;5.80;0.90;;;5.00;1.00;;;;;;5081598;28;20210;-81
2023/12/23 05:48:56;;;;;;;1.77;0.60;;;5.00;1.00;;;;;;5083056;28;20202;-79
2023/12/23 05:51:22;;;;;;;3.73;0.90;;;5.00;1.00;;;;;;5083755;28;20264;-81
2023/12/23 05:53:49;;;;;;;4.40;1.60;;;5.00;99.90;;;;;;5086019;28;20258;-80
2023/12/23 05:56:16;;;;;;;4.20;0.90;;;4.90;99.90;;;;;;5085613;28;20274;-80
2023/12/23 05:58:43;;;;;;;8.07;1.33;;;4.90;99.90;;;;;;5086260;28;20199;-80
2023/12/23 06:01:10;;;;;;;3.20;1.10;;;4.90;99.90;;;;;;5084682;28;20236;-80
2023/12/23 06:03:37;;;;;;;5.43;1.10;;;4.90;99.90;;;;;;5084634;28;20206;-81
2023/12/23 06:06:06;;;;;;;3.23;0.87;;;4.80;99.90;;;;;;5085798;28;20236;-79
2023/12/23 06:08:33;;;;;;;4.67;1.00;;;4.80;99.90;;;;;;5085693;28;20224;-81
2023/12/23 06:11:00;;;;;;;6.23;0.70;;;4.80;99.90;;;;;;5084890;28;20289;-81
2023/12/23 06:13:26;;;;;;;3.73;0.43;;;4.80;99.90;;;;;;5085660;28;20294;-82
2023/12/23 06:15:54;;;;;;;5.63;0.90;;;4.70;99.90;;;;;;5083384;28;20210;-81
2023/12/23 06:18:21;;;;;;;6.33;0.93;;;4.70;99.90;;;;;;5083430;28;20206;-81
2023/12/23 06:20:48;;;;;;;8.70;1.00;;;4.70;99.90;;;;;;5084817;28;20230;-81
2023/12/23 06:23:16;;;;;;;3.37;0.90;;;4.70;99.90;;;;;;5084636;28;20285;-82
2023/12/23 06:25:43;;;;;;;5.70;1.50;;;4.70;99.90;;;;;;5084168;28;20271;-80
2023/12/23 06:28:10;;;;;;;8.00;1.70;;;4.60;99.90;;;;;;5085112;28;20277;-82
2023/12/23 06:30:37;;;;;;;2.70;0.67;;;4.60;99.90;;;;;;5082603;28;20232;-80
2023/12/23 06:33:04;;;;;;;2.63;0.80;;;4.60;99.90;;;;;;5084978;28;20289;-82
2023/12/23 06:35:31;;;;;;;4.67;0.70;;;4.60;99.90;;;;;;5084285;28;20275;-81
2023/12/23 06:37:58;;;;;;;3.13;0.63;;;4.50;99.90;;;;;;5076416;28;20234;-80
2023/12/23 06:40:30;;;;;;;2.37;0.60;;;4.50;99.90;;;;;;5070791;28;20198;-81
2023/12/23 06:42:57;;;;;;;2.00;0.73;;;4.40;99.90;;;;;;5074102;28;20222;-81
2023/12/23 06:45:24;;;;;;;1.77;0.53;;;4.40;99.90;;;;;;5069840;28;20237;-80
2023/12/23 06:47:51;;;;;;;3.87;0.80;;;4.40;99.90;;;;;;5081968;28;20214;-81
2023/12/23 06:50:18;;;;;;;1.53;0.80;;;4.40;99.90;;;;;;5083286;28;20218;-81
2023/12/23 06:52:45;;;;;;;3.50;0.80;;;4.30;99.90;;;;;;5075700;28;20250;-81
2023/12/23 06:55:12;;;;;;;2.90;0.63;;;4.30;99.90;;;;;;5082849;28;20210;-81
2023/12/23 06:57:40;;;;;;;3.07;0.87;;;4.30;99.90;;;;;;5083518;28;20233;-80
2023/12/23 07:00:08;;;;;;;3.10;0.90;;;4.30;99.90;;;;;;5083592;28;20232;-79
2023/12/23 07:02:35;;;;;;;3.70;0.60;;;4.30;99.90;;;;;;5079794;28;20252;-81
2023/12/23 07:05:03;;;;;;;0.53;0.30;;;4.30;99.90;;;;;;5076167;28;20206;-81
2023/12/23 07:07:30;;;;;;;3.67;0.70;;;4.70;99.90;;;;;;5079079;28;20216;-81
2023/12/23 07:09:58;;;;;;;3.23;0.50;;;4.50;99.90;;;;;;5081776;28;20234;-80
2023/12/23 07:12:25;;;;;;;0.80;0.50;;;4.30;99.90;;;;;;5073770;28;20591;-80
2023/12/23 07:14:53;;;;;;;3.77;0.60;;;4.30;99.90;;;;;;5071814;28;20570;-81
2023/12/23 07:17:20;;;;;;;1.30;0.67;;;4.30;99.90;;;;;;5068728;28;20679;-81
2023/12/23 07:19:47;;;;;;;3.40;1.80;;;4.20;99.90;;;;;;5063921;28;20227;-79
2023/12/23 07:22:14;;;;;;;2.23;1.07;;;4.20;99.90;;;;;;5063471;28;20226;-81
2023/12/23 07:24:41;;;;;;;1.60;0.80;;;4.20;99.90;;;;;;5064634;28;20226;-82
2023/12/23 07:27:08;;;;;;;3.07;0.40;;;4.20;99.90;;;;;;5064565;28;20207;-81
2023/12/23 07:29:39;;;;;;;1.50;0.57;;;4.20;99.90;;;;;;5064453;28;20238;-80
2023/12/23 07:32:08;;;;;;;0.67;0.10;;;4.20;99.90;;;;;;5063337;28;20227;-81
2023/12/23 07:34:35;;;;;;;2.90;0.33;;;4.20;99.90;;;;;;5063879;28;20214;-81
2023/12/23 07:37:02;;;;;;;0.37;0.30;;;4.20;99.90;;;;;;5080362;28;20203;-80
2023/12/23 07:39:29;;;;;;;2.40;1.20;;;4.20;99.90;;;;;;5071143;28;20205;-81
2023/12/23 07:41:57;;;;;;;1.73;0.30;;;4.20;99.90;;;;;;5103538;28;20221;-81
2023/12/23 07:44:24;;;;;;;0.20;0.20;;;4.20;99.90;;;;;;5082987;28;20210;-79
2023/12/23 07:46:51;;;;;;;0.83;0.33;;;4.20;99.90;;;;;;5076536;28;20214;-81
2023/12/23 07:49:20;;;;;;;1.00;0.10;;;4.20;99.90;;;;;;5073524;28;20213;-81
2023/12/23 07:51:47;;;;;;;0.83;0.33;;;4.20;99.90;;;;;;5076146;28;20219;-81
2023/12/23 07:54:14;;;;;;;0.40;0.30;;;4.20;99.90;;;;;;5073769;28;20254;-82
2023/12/23 07:56:41;;;;;;;0.20;0.20;;;4.10;99.90;;;;;;5078898;28;20218;-81
2023/12/23 07:59:08;;;;;;;0.17;0.07;;;4.20;99.90;;;;;;5072737;28;20291;-80
2023/12/23 08:01:43;;;;;;;1.13;0.30;;;4.10;99.90;;;;;;5077940;28;20252;-81
2023/12/23 08:04:10;;;;;;;0.13;0.00;;;4.10;99.90;;;;;;5071046;28;20589;-80
2023/12/23 08:06:38;;;;;;;1.67;0.20;;;4.10;99.90;;;;;;5068429;28;20231;-81
2023/12/23 08:09:05;;;;;;;0.20;0.20;;;4.10;99.90;;;;;;5081423;28;20212;-80
2023/12/23 08:11:32;;;;;;;1.40;0.37;;;4.10;99.90;;;;;;5078345;28;20228;-82
2023/12/23 08:13:59;;;;;;;0.37;0.10;;;4.10;99.90;;;;;;5083236;28;20207;-82
2023/12/23 08:16:26;;;;;;;0.13;0.10;;;4.10;99.90;;;;;;5086495;28;20269;-82
2023/12/23 08:18:53;;;;;;;0.20;0.10;;;4.10;99.90;;;;;;5085061;28;20198;-82
2023/12/23 08:21:21;;;;;;;0.10;0.10;;;4.10;99.90;;;;;;5087717;28;20252;-81
2023/12/23 08:23:49;;;;;;;0.63;0.13;;;4.00;99.90;;;;;;5087434;28;20653;-82
2023/12/23 08:26:16;;;;;;;0.20;0.10;;;3.90;99.90;;;;;;5088701;28;20226;-81
2023/12/23 08:28:43;;;;;;;0.17;0.10;;;3.80;99.90;;;;;;5086246;28;20234;-81
2023/12/23 08:31:10;;;;;;;0.10;0.10;;;3.70;99.90;;;;;;5067850;28;20223;-81
2023/12/23 08:33:37;;;;;;;0.70;0.20;;;3.70;99.90;;;;;;5083143;28;20262;-81
2023/12/23 08:36:04;;;;;;;0.10;0.10;;;3.80;99.90;;;;;;5086440;28;20618;-81
2023/12/23 08:38:31;;;;;;;0.30;0.17;;;3.60;99.90;;;;;;5085988;28;20207;-82
2023/12/23 08:40:59;;;;;;;0.17;0.10;;;3.60;99.90;;;;;;5083974;28;20230;-81
2023/12/23 08:43:26;;;;;;;0.30;0.20;;;3.50;99.90;;;;;;5086546;28;20598;-82
2023/12/23 08:45:53;;;;;;;0.20;0.10;;;4.00;99.90;;;;;;5085701;28;20234;-81
2023/12/23 08:48:20;;;;;;;1.13;0.20;;;3.50;99.90;;;;;;5072942;28;20206;-82
2023/12/23 08:50:47;;;;;;;1.40;0.10;;;3.40;99.90;;;;;;5069653;28;20211;-81
2023/12/23 08:53:16;;;;;;;0.17;0.10;;;3.40;99.90;;;;;;5074773;28;20206;-81
2023/12/23 08:55:44;;;;;;;0.10;0.10;;;3.30;99.90;;;;;;5071525;28;20222;-81
2023/12/23 08:58:13;;;;;;;0.20;0.10;;;3.30;99.90;;;;;;5082376;28;20203;-83
2023/12/23 09:00:40;;;;;;;0.23;0.23;;;3.30;99.90;;;;;;5076152;28;20219;-81
2023/12/23 09:03:07;;;;;;;0.60;0.40;;;3.30;99.90;;;;;;5077841;28;20245;-82
2023/12/23 09:05:34;;;;;;;0.70;0.60;;;3.30;99.90;;;;;;5075897;28;20207;-82
2023/12/23 09:08:01;;;;;;;0.70;0.70;;;3.30;99.90;;;;;;5080096;28;20237;-81
2023/12/23 09:10:28;;;;;;;0.73;0.73;;;3.30;99.90;;;;;;5078340;28;20214;-82
2023/12/23 09:12:55;;;;;;;0.27;0.27;;;3.20;99.90;;;;;;5078577;28;20197;-82
2023/12/23 09:15:24;;;;;;;1.00;0.90;;;3.20;99.90;;;;;;5083182;28;20201;-82
2023/12/23 09:17:51;;;;;;;1.07;1.00;;;3.20;99.90;;;;;;5079864;28;21039;-81
2023/12/23 09:20:18;;;;;;;1.60;1.50;;;3.10;99.90;;;;;;5083945;28;20199;-81
2023/12/23 09:22:45;;;;;;;1.70;1.17;;;3.10;99.90;;;;;;5080609;28;20222;-82
2023/12/23 09:25:13;;;;;;;0.80;0.80;;;3.10;99.90;;;;;;5076610;28;20587;-83
2023/12/23 09:27:40;;;;;;;4.90;3.17;;;3.10;99.90;;;;;;5080643;28;20208;-81
2023/12/23 09:30:08;;;;;;;1.07;0.97;;;3.10;99.90;;;;;;5080388;28;20641;-82
2023/12/23 09:32:36;;;;;;;1.63;1.10;;;3.00;99.90;;;;;;5077316;28;20310;-81
2023/12/23 09:35:03;;;;;;;2.23;1.57;;;3.00;99.90;;;;;;5078031;28;20220;-81
2023/12/23 09:37:30;;;;;;;0.23;0.20;;;3.10;99.90;;;;;;5083448;28;20236;-82
2023/12/23 09:39:59;;;;;;;1.03;0.40;;;3.10;99.90;;;;;;5074904;28;20228;-82
2023/12/23 09:42:26;;;;;;;0.20;0.20;;;3.10;99.90;;;;;;5084604;28;20242;-83
2023/12/23 09:44:53;;;;;;;0.20;0.20;;;3.10;99.90;;;;;;5082148;28;20293;-81
2023/12/23 09:47:20;;;;;;;0.70;0.70;;;3.00;99.90;;;;;;5073845;28;20203;-81
2023/12/23 09:49:49;;;;;;;0.77;0.50;;;3.00;99.90;;;;;;5073602;28;20218;-82
2023/12/23 09:52:16;;;;;;;0.53;0.53;;;3.00;99.90;;;;;;5080590;28;20583;-82
2023/12/23 09:54:48;;;;;;;0.93;0.60;;;3.00;99.90;;;;;;5076759;28;20202;-81
2023/12/23 09:57:16;;;;;;;0.50;0.50;;;2.90;99.90;;;;;;5075295;28;20293;-82
2023/12/23 09:59:43;;;;;;;0.87;0.70;;;2.90;99.90;;;;;;5076268;28;20221;-81
2023/12/23 10:02:10;;;;;;;0.63;0.60;;;2.90;99.90;;;;;;5077739;28;20241;-82
2023/12/23 10:04:37;;;;;;;1.63;0.90;;;2.90;99.90;;;;;;5083807;28;20206;-80
2023/12/23 10:07:06;;;;;;;1.23;0.93;;;2.90;99.90;;;;;;5077279;28;20198;-81
2023/12/23 10:09:33;;;;;;;2.63;1.40;;;2.90;99.90;;;;;;5081652;28;20194;-81
2023/12/23 10:12:02;;;;;;;1.93;1.20;;;2.80;99.90;;;;;;5073492;28;20233;-80
2023/12/23 10:14:29;;;;;;;1.10;0.90;;;2.90;99.90;;;;;;5074940;28;20210;-82
2023/12/23 10:16:56;;;;;;;2.83;1.70;;;2.90;99.90;;;;;;5077941;28;20548;-81
2023/12/23 10:19:24;;;;;;;1.43;0.63;;;2.90;99.90;;;;;;5073731;28;20249;-82
2023/12/23 10:21:51;;;;;;;0.80;0.80;;;2.80;99.90;;;;;;5078242;28;20238;-81
2023/12/23 10:24:19;;;;;;;1.70;0.60;;;2.80;99.90;;;;;;5080193;28;20263;-81
2023/12/23 10:26:47;;;;;;;0.60;0.60;;;2.90;99.90;;;;;;5080011;28;20247;-81
2023/12/23 10:29:17;;;;;;;1.47;0.63;;;2.90;99.90;;;;;;5085070;28;20274;-82
2023/12/23 10:31:47;;;;;;;0.77;0.70;;;2.90;99.90;;;;;;5084354;28;20219;-81
2023/12/23 10:34:19;;;;;;;1.03;0.57;;;2.90;99.90;;;;;;5083291;28;20194;-80
2023/12/23 10:36:46;;;;;;;0.73;0.70;;;2.90;99.90;;;;;;5081853;28;20221;-80
2023/12/23 10:39:21;;;;;;;0.93;0.80;;;3.00;99.90;;;;;;5071419;28;20759;-79
2023/12/23 10:41:57;;;;;;;1.23;1.00;;;3.00;99.90;;;;;;5081476;28;20248;-81
2023/12/23 10:44:25;;;;;;;1.73;0.90;;;3.00;99.90;;;;;;5077980;28;20275;-81
2023/12/23 10:46:52;;;;;;;1.23;0.90;;;3.00;99.90;;;;;;5078157;28;20206;-80
2023/12/23 10:49:22;;;;;;;1.70;0.53;;;3.00;99.90;;;;;;5068335;28;20234;-81
2023/12/23 10:51:51;;;;;;;3.63;1.73;;;3.10;99.90;;;;;;5078156;28;20231;-80
2023/12/23 10:54:19;;;;;;;5.57;2.67;;;3.10;99.90;;;;;;5069371;28;20251;-81
2023/12/23 10:56:47;;;;;;;4.87;2.13;;;3.10;99.90;;;;;;5066890;28;20228;-80
2023/12/23 10:59:15;;;;;;;2.20;1.60;;;3.10;99.90;;;;;;5073250;28;20289;-80
2023/12/23 11:01:43;;;;;;;0.57;0.50;;;3.50;99.90;;;;;;5074376;28;20276;-81
2023/12/23 11:04:10;;;;;;;0.70;0.60;;;3.20;99.90;;;;;;5072478;28;20218;-82
2023/12/23 11:06:42;;;;;;;0.50;0.50;;;3.20;99.90;;;;;;5076106;28;20237;-80
2023/12/23 11:09:10;;;;;;;1.17;0.80;;;3.20;99.90;;;;;;5068199;28;20203;-79
2023/12/23 11:11:38;;;;;;;0.50;0.47;;;3.20;99.90;;;;;;5065575;28;20749;-79
2023/12/23 11:14:07;;;;;;;0.73;0.70;;;3.20;99.90;;;;;;5064179;28;20290;-79
2023/12/23 11:16:38;;;;;;;0.67;0.67;;;3.30;99.90;;;;;;5065151;28;20237;-79
2023/12/23 11:19:05;;;;;;;1.93;0.70;;;3.30;99.90;;;;;;5065412;28;20218;-79
2023/12/23 11:21:34;;;;;;;1.23;0.83;;;3.30;99.90;;;;;;5071301;28;20249;-79
2023/12/23 11:24:01;;;;;;;1.47;0.70;;;3.30;99.90;;;;;;5062586;28;20219;-79
2023/12/23 11:26:41;;;;;;;0.87;0.80;;;3.40;99.90;;;;;;5068769;28;20214;-79
2023/12/23 11:29:10;;;;;;;1.10;1.00;;;3.40;99.90;;;;;;5069037;28;20203;-79
2023/12/23 11:31:38;;;;;;;0.90;0.90;;;3.40;99.90;;;;;;5070801;28;20232;-79
2023/12/23 11:34:14;;;;;;;2.03;1.40;;;3.40;99.90;;;;;;5068234;28;20230;-78
2023/12/23 11:36:43;;;;;;;1.03;0.93;;;3.50;99.90;;;;;;5070068;28;20240;-78
2023/12/23 11:39:13;;;;;;;1.50;0.67;;;3.50;99.90;;;;;;5072019;28;20198;-78
2023/12/23 11:41:42;;;;;;;0.77;0.70;;;3.50;99.90;;;;;;5074391;28;20225;-78
2023/12/23 11:44:11;;;;;;;1.37;0.93;;;3.60;99.90;;;;;;5074940;28;20222;-78
2023/12/23 11:46:40;;;;;;;0.70;0.70;;;3.60;99.90;;;;;;5074883;28;20199;-79
2023/12/23 11:49:09;;;;;;;0.70;0.70;;;3.60;99.90;;;;;;5074072;28;20253;-79
2023/12/23 11:51:38;;;;;;;5.20;2.97;;;3.70;99.90;;;;;;5076372;28;20236;-79
2023/12/23 11:54:05;;;;;;;1.60;1.40;;;3.60;99.90;;;;;;5060196;28;20202;-78
2023/12/23 11:56:33;;;;;;;1.63;0.70;;;3.70;99.90;;;;;;5064391;28;20206;-78
2023/12/23 11:59:01;;;;;;;0.53;0.50;;;3.70;99.90;;;;;;5062260;28;20253;-78
2023/12/23 12:01:28;;;;;;;0.57;0.50;;;3.70;99.90;;;;;;5070346;28;20646;-79
2023/12/23 12:03:57;;;;;;;0.57;0.40;;;3.60;99.90;;;;;;5072280;28;20227;-77
2023/12/23 12:06:25;;;;;;;0.63;0.60;;;3.70;99.90;;;;;;5067578;28;20209;-76
2023/12/23 12:08:53;;;;;;;1.33;0.90;;;3.70;99.90;;;;;;5072669;28;20203;-77
2023/12/23 12:11:20;;;;;;;0.80;0.80;;;3.70;99.90;;;;;;5071359;28;20249;-76
2023/12/23 12:13:47;;;;;;;0.90;0.60;;;3.70;99.90;;;;;;5070163;28;20195;-76
2023/12/23 12:16:14;;;;;;;0.77;0.77;;;3.70;99.90;;;;;;5068354;28;20284;-76
2023/12/23 12:18:42;;;;;;;0.80;0.70;;;3.70;99.90;;;;;;5070999;28;20294;-77
2023/12/23 12:21:09;;;;;;;0.73;0.67;;;3.70;99.90;;;;;;5069813;28;20219;-77
2023/12/23 12:23:36;;;;;;;0.83;0.70;;;3.80;99.90;;;;;;5068662;28;20396;-76
2023/12/23 12:26:03;;;;;;;0.70;0.57;;;3.80;99.90;;;;;;5069608;28;20206;-77
2023/12/23 12:28:31;;;;;;;1.00;0.73;;;3.80;99.90;;;;;;5070852;28;20214;-76
2023/12/23 12:31:08;;;;;;;0.47;0.43;;;3.70;99.90;;;;;;5070908;28;20698;-76
2023/12/23 12:33:37;;;;;;;0.90;0.70;;;3.80;99.90;;;;;;5064402;28;20198;-76
2023/12/23 12:36:07;;;;;;;1.00;0.63;;;3.80;99.90;;;;;;5070541;28;20207;-76
2023/12/23 12:38:35;;;;;;;1.80;0.90;;;3.80;99.90;;;;;;5071687;28;20545;-78
2023/12/23 12:41:02;;;;;;;3.77;2.03;;;3.80;99.90;;;;;;5070965;28;20231;-77
2023/12/23 12:43:31;;;;;;;2.93;2.60;;;3.90;99.90;;;;;;5073281;28;20314;-78
2023/12/23 12:45:58;;;;;;;6.87;2.73;;;3.90;99.90;;;;;;5070228;28;20207;-77
2023/12/23 12:48:27;;;;;;;5.30;2.50;;;3.90;99.90;;;;;;5065659;28;20199;-77
2023/12/23 12:50:56;;;;;;;1.87;1.40;;;3.90;99.90;;;;;;5068371;28;20313;-77
2023/12/23 12:53:23;;;;;;;2.30;2.07;;;4.00;99.90;;;;;;5068268;28;20289;-76
2023/12/23 12:55:51;;;;;;;1.40;1.30;;;4.00;99.90;;;;;;5071553;28;20719;-77
2023/12/23 12:58:19;;;;;;;2.10;1.30;;;4.00;99.90;;;;;;5061953;28;20289;-77
2023/12/23 13:00:46;;;;;;;3.13;1.90;;;4.10;99.90;;;;;;5068059;28;20203;-77
2023/12/23 13:03:13;;;;;;;3.23;2.20;;;4.10;99.90;;;;;;5066236;28;20237;-77